Time;durP1;ratioP1;P1;durP2;ratioP2;P2;SDS_P1;SDS_P2;PMS_P1;PMS_P2;Temp;Humidity;BMP_temperature;BMP_pressure;BME280_temperature;BME280_humidity;BME280_pressure;Samples;Min_cycle;Max_cycle;Signal;HPM_P1;HPM_P2
2022/09/21 00:00:27;;;;;;;1.27;0.50;;;;;;;17.63;40.06;99602.53;5073532;28;20048;-79
2022/09/21 00:02:57;;;;;;;0.80;0.55;;;;;;;17.89;40.34;99636.19;5073511;28;20021;-80
2022/09/21 00:05:23;;;;;;;2.15;0.60;;;;;;;17.88;40.37;99630.03;5073474;28;20416;-79
2022/09/21 00:07:49;;;;;;;0.75;0.60;;;;;;;17.87;40.46;99631.06;5072372;28;20021;-78
2022/09/21 00:10:15;;;;;;;0.60;0.60;;;;;;;17.36;40.54;99551.28;5072385;28;20027;-78
2022/09/21 00:12:41;;;;;;;1.98;0.50;;;;;;;17.28;40.69;99532.91;5073676;28;20029;-78
2022/09/21 00:15:09;;;;;;;0.90;0.73;;;;;;;17.87;40.76;99622.25;5073830;28;20024;-78
2022/09/21 00:17:36;;;;;;;0.85;0.68;;;;;;;17.88;40.89;99630.03;5076757;28;20111;-79
2022/09/21 00:20:04;;;;;;;1.75;0.70;;;;;;;17.61;41.33;99580.59;5076389;28;20067;-80
2022/09/21 00:22:31;;;;;;;1.80;0.70;;;;;;;17.75;41.08;99614.13;5072253;28;20024;-78
2022/09/21 00:24:56;;;;;;;1.38;0.90;;;;;;;17.42;41.27;99572.56;5073402;28;20032;-78
2022/09/21 00:27:28;;;;;;;1.90;0.60;;;;;;;17.35;41.27;99576.34;5073482;28;20024;-78
2022/09/21 00:29:58;;;;;;;2.03;0.70;;;;;;;17.47;41.37;99577.25;5072449;28;20021;-78
2022/09/21 00:32:24;;;;;;;1.60;0.70;;;;;;;17.03;41.39;99514.25;5072086;28;20021;-78
2022/09/21 00:34:50;;;;;;;1.48;0.52;;;;;;;17.31;41.51;99572.50;5073296;28;20024;-79
2022/09/21 00:37:16;;;;;;;2.45;0.90;;;;;;;17.41;41.53;99594.97;5073133;28;20028;-79
2022/09/21 00:39:42;;;;;;;1.08;0.95;;;;;;;17.54;41.77;99639.38;5072890;28;20024;-79
2022/09/21 00:42:29;;;;;;;2.10;0.70;;;;;;;17.40;42.18;99630.69;5072898;28;20027;-79
2022/09/21 00:44:55;;;;;;;1.13;0.50;;;;;;;16.70;42.02;99515.38;5071446;28;20416;-79
2022/09/21 00:47:26;;;;;;;1.60;0.77;;;;;;;17.36;42.29;99624.16;5072875;28;20025;-79
2022/09/21 00:49:55;;;;;;;1.05;0.50;;;;;;;17.35;41.98;99625.19;5071587;28;20111;-79
2022/09/21 00:52:27;;;;;;;2.22;0.63;;;;;;;16.76;41.82;99516.34;5071429;28;20103;-79
2022/09/21 00:54:59;;;;;;;;;;;;;;;17.27;41.97;99612.13;5073087;28;20039;-79
2022/09/21 00:57:26;;;;;;;;;;;;;;;17.22;42.88;99617.31;5073143;28;19909;-78
2022/09/21 00:59:55;;;;;;;4.13;0.60;;;;;;;17.29;41.78;99614.59;5072511;28;20061;-79
2022/09/21 01:02:21;;;;;;;0.73;0.70;;;;;;;17.24;41.77;99582.41;5072766;28;20099;-79
2022/09/21 01:04:47;;;;;;;1.13;0.65;;;;;;;17.10;42.05;99552.38;5072518;28;20143;-79
2022/09/21 01:07:18;;;;;;;0.93;0.52;;;;;;;17.51;41.87;99606.97;5071511;28;20120;-79
2022/09/21 01:09:48;;;;;;;1.07;0.60;;;;;;;17.14;41.84;99558.91;5071273;28;20025;-79
2022/09/21 01:12:14;;;;;;;0.90;0.77;;;;;;;17.57;41.64;99596.22;5071203;28;20271;-79
2022/09/21 01:15:24;;;;;;;0.90;0.60;;;;;;;17.67;41.60;99595.75;5071219;28;20481;-79
2022/09/21 01:18:13;;;;;;;1.67;0.70;;;;;;;17.29;41.46;99550.53;5070913;28;20511;-79
2022/09/21 01:20:54;;;;;;;2.40;1.00;;;;;;;17.70;42.00;99600.63;5072456;28;20440;-79
2022/09/21 01:23:44;;;;;;;2.50;0.80;;;;;;;17.69;41.63;99601.69;5070755;28;20407;-78
2022/09/21 01:26:31;;;;;;;1.50;0.70;;;;;;;17.64;41.46;99601.50;5072066;28;20485;-79
2022/09/21 01:29:05;;;;;;;2.40;1.00;;;;;;;17.58;41.61;99605.88;5072060;28;20032;-80
2022/09/21 01:31:38;;;;;;;0.63;0.50;;;;;;;16.77;41.83;99484.13;5071975;28;20032;-78
2022/09/21 01:34:10;;;;;;;1.60;0.60;;;;;;;16.84;41.88;99508.88;5070783;28;20382;-79
2022/09/21 01:36:38;;;;;;;1.90;0.90;;;;;;;16.71;42.26;99487.69;5071911;28;20103;-78
2022/09/21 01:39:12;;;;;;;2.78;0.70;;;;;;;17.32;42.67;99596.28;5070572;28;20028;-78
2022/09/21 01:41:41;;;;;;;1.95;1.00;;;;;;;16.61;42.27;99494.50;5071954;28;20028;-79
2022/09/21 01:44:12;;;;;;;1.20;0.80;;;;;;;16.22;42.59;99443.13;5071820;28;20028;-79
2022/09/21 01:46:38;;;;;;;4.03;0.88;;;;;;;17.24;42.60;99591.22;5071806;28;20028;-78
2022/09/21 01:49:11;;;;;;;2.13;0.82;;;;;;;17.26;42.52;99583.00;5071688;28;20044;-79
2022/09/21 01:51:42;;;;;;;1.60;1.08;;;;;;;17.23;42.54;99589.59;5071550;28;20024;-79
2022/09/21 01:54:20;;;;;;;1.60;0.90;;;;;;;17.26;42.54;99593.69;5071653;28;20032;-79
2022/09/21 01:56:53;;;;;;;0.82;0.70;;;;;;;16.23;42.29;99428.78;5071693;28;20047;-79
2022/09/21 01:59:29;;;;;;;2.03;1.02;;;;;;;16.27;41.96;99408.66;5071566;28;20412;-78
2022/09/21 02:02:05;;;;;;;0.98;0.82;;;;;;;16.87;41.91;99501.47;5071419;28;20032;-79
2022/09/21 02:04:33;;;;;;;1.20;0.98;;;;;;;16.93;42.30;99544.09;5070201;28;20028;-79
2022/09/21 02:07:00;;;;;;;1.20;0.88;;;;;;;15.43;42.54;99290.09;5070174;28;20024;-79
2022/09/21 02:09:25;;;;;;;0.80;0.70;;;;;;;17.04;42.30;99535.38;5070168;28;20477;-79
2022/09/21 02:11:51;;;;;;;1.75;0.90;;;;;;;17.10;42.63;99569.19;5070090;28;20031;-79
2022/09/21 02:14:21;;;;;;;1.00;0.90;;;;;;;17.08;42.76;99549.91;5071156;28;20033;-79
2022/09/21 02:17:18;;;;;;;1.70;0.82;;;;;;;17.32;42.83;99587.47;5071068;28;20129;-78
2022/09/21 02:20:02;;;;;;;1.65;0.90;;;;;;;17.33;42.45;99591.75;5071137;28;20108;-79
2022/09/21 02:22:48;;;;;;;1.63;1.00;;;;;;;17.14;42.76;99566.91;5071182;28;20024;-79
2022/09/21 02:25:26;;;;;;;1.35;0.93;;;;;;;17.05;42.64;99542.34;5069962;28;20031;-79
2022/09/21 02:28:04;;;;;;;1.63;1.10;;;;;;;17.11;42.56;99544.16;5069990;28;20063;-78
2022/09/21 02:30:34;;;;;;;1.85;1.25;;;;;;;16.59;42.96;99478.72;5071276;28;20029;-78
2022/09/21 02:33:31;;;;;;;1.65;1.13;;;;;;;17.23;43.61;99591.44;5071110;28;20573;-79
2022/09/21 02:36:18;;;;;;;2.65;1.35;;;;;;;17.17;43.12;99592.34;5071015;28;20025;-79
2022/09/21 02:39:14;;;;;;;2.78;1.30;;;;;;;16.99;43.48;99556.56;5069980;28;20025;-79
2022/09/21 02:42:02;;;;;;;1.73;1.00;;;;;;;16.88;43.25;99554.59;5069451;28;20123;-78
2022/09/21 02:44:37;;;;;;;1.75;1.30;;;;;;;16.50;43.16;99502.19;5069894;28;20117;-78
2022/09/21 02:47:23;;;;;;;3.55;1.42;;;;;;;16.97;43.24;99593.28;5071440;28;20492;-78
2022/09/21 02:49:53;;;;;;;1.73;0.98;;;;;;;16.30;43.67;99504.16;5071240;28;20086;-78
2022/09/21 02:52:20;;;;;;;3.10;1.38;;;;;;;16.93;43.78;99596.63;5071142;28;20024;-78
2022/09/21 02:54:50;;;;;;;1.20;0.90;;;;;;;16.73;43.42;99567.44;5074100;28;20044;-78
2022/09/21 02:57:19;;;;;;;1.20;1.10;;;;;;;16.88;43.51;99583.13;5074793;28;20047;-79
2022/09/21 02:59:45;;;;;;;2.45;1.00;;;;;;;16.86;43.86;99593.19;5073642;28;20056;-78
2022/09/21 03:02:13;;;;;;;1.15;1.05;;;;;;;16.55;43.78;99524.69;5073661;28;20508;-78
2022/09/21 03:04:41;;;;;;;1.17;1.00;;;;;;;16.99;44.05;99590.41;5075093;28;20535;-79
2022/09/21 03:07:07;;;;;;;1.50;1.20;;;;;;;16.66;43.65;99545.34;5073931;28;20025;-79
2022/09/21 03:09:33;;;;;;;1.42;1.33;;;;;;;17.04;43.41;99583.38;5074979;28;20475;-78
2022/09/21 03:11:59;;;;;;;0.80;0.80;;;;;;;16.94;43.11;99559.06;5073570;28;20028;-78
2022/09/21 03:14:24;;;;;;;2.95;1.20;;;;;;;16.79;42.96;99539.91;5074643;28;20020;-79
2022/09/21 03:16:50;;;;;;;2.08;1.13;;;;;;;16.72;42.72;99533.81;5073324;28;20024;-79
2022/09/21 03:19:16;;;;;;;1.67;1.25;;;;;;;16.90;42.60;99557.03;5074663;28;20025;-78
2022/09/21 03:21:42;;;;;;;2.42;1.25;;;;;;;16.91;42.85;99559.50;5073210;28;20020;-78
2022/09/21 03:24:07;;;;;;;2.35;1.25;;;;;;;16.35;42.93;99496.34;5074363;28;20095;-78
2022/09/21 03:26:33;;;;;;;1.50;1.35;;;;;;;16.06;43.36;99451.66;5074412;28;20109;-78
2022/09/21 03:28:58;;;;;;;2.28;1.40;;;;;;;16.39;43.30;99526.06;5073133;28;20031;-78
2022/09/21 03:31:24;;;;;;;4.22;1.40;;;;;;;16.23;43.42;99498.06;5074428;28;20086;-78
2022/09/21 03:33:49;;;;;;;1.80;1.15;;;;;;;16.28;43.56;99513.38;5072970;28;20024;-79
2022/09/21 03:36:15;;;;;;;1.58;1.45;;;;;;;16.72;43.34;99571.97;5074587;28;20024;-78
2022/09/21 03:38:41;;;;;;;2.50;1.63;;;;;;;16.09;43.50;99462.69;5074443;28;20031;-78
2022/09/21 03:41:07;;;;;;;2.22;1.70;;;;;;;16.58;43.01;99535.75;5075927;28;20099;-79
2022/09/21 03:43:32;;;;;;;3.58;1.77;;;;;;;16.39;42.92;99512.72;5077277;28;20480;-81
2022/09/21 03:45:58;;;;;;;2.70;1.77;;;;;;;16.79;42.70;99577.25;5074022;28;20025;-79
2022/09/21 03:48:23;;;;;;;3.15;1.80;;;;;;;16.85;42.32;99592.38;5072983;28;20027;-79
2022/09/21 03:50:49;;;;;;;1.50;1.40;;;;;;;16.16;42.48;99475.97;5073933;28;20017;-79
2022/09/21 03:53:15;;;;;;;2.95;1.38;;;;;;;16.70;42.25;99594.53;5073687;28;20028;-78
2022/09/21 03:55:41;;;;;;;1.67;1.58;;;;;;;16.73;42.31;99564.78;5073863;28;20159;-79
2022/09/21 03:58:07;;;;;;;2.80;1.75;;;;;;;16.78;41.93;99583.59;5073909;28;20570;-78
2022/09/21 04:00:34;;;;;;;1.85;1.60;;;;;;;16.80;42.08;99600.22;5073743;28;20075;-78
2022/09/21 04:03:00;;;;;;;2.55;1.65;;;;;;;16.74;41.88;99591.22;5072426;28;20478;-78
2022/09/21 04:05:26;;;;;;;3.40;1.80;;;;;;;16.77;41.78;99606.78;5072490;28;20032;-78
2022/09/21 04:07:53;;;;;;;2.05;1.83;;;;;;;16.93;41.74;99607.28;5072474;28;20035;-79
2022/09/21 04:10:22;;;;;;;3.47;2.10;;;;;;;17.01;41.47;99621.16;5073808;28;20130;-79
2022/09/21 04:12:48;;;;;;;3.30;2.00;;;;;;;17.11;41.26;99620.69;5073724;28;20102;-79
2022/09/21 04:15:18;;;;;;;2.03;1.80;;;;;;;17.10;41.03;99637.75;5073505;28;20024;-79
2022/09/21 04:17:45;;;;;;;3.90;1.80;;;;;;;17.08;41.30;99615.78;5073563;28;20024;-79
2022/09/21 04:20:10;;;;;;;4.15;2.33;;;;;;;16.55;41.23;99532.69;5072132;28;20109;-79
2022/09/21 04:22:36;;;;;;;2.75;2.00;;;;;;;16.50;41.15;99541.34;5072090;28;20040;-79
2022/09/21 04:25:05;;;;;;;2.28;1.95;;;;;;;16.87;41.40;99594.81;5072202;28;20101;-79
2022/09/21 04:27:31;;;;;;;2.95;1.98;;;;;;;16.41;41.36;99519.47;5071998;28;20055;-79
2022/09/21 04:29:57;;;;;;;3.58;1.92;;;;;;;17.08;41.25;99621.94;5073422;28;20479;-78
2022/09/21 04:32:23;;;;;;;3.88;2.30;;;;;;;16.64;41.10;99555.38;5072028;28;20056;-79
2022/09/21 04:34:48;;;;;;;7.53;2.20;;;;;;;16.58;41.26;99554.41;5073048;28;20035;-78
2022/09/21 04:37:14;;;;;;;5.43;2.97;;;;;;;16.56;41.29;99551.13;5073117;28;20100;-79
2022/09/21 04:39:39;;;;;;;3.70;2.15;;;;;;;16.88;41.17;99593.78;5073049;28;20031;-79
2022/09/21 04:42:05;;;;;;;4.60;2.55;;;;;;;16.13;41.25;99495.88;5073035;28;20085;-79
2022/09/21 04:44:31;;;;;;;7.50;3.13;;;;;;;16.42;41.36;99534.44;5071626;28;20486;-79
2022/09/21 04:46:57;;;;;;;4.05;2.20;;;;;;;16.82;41.61;99600.81;5072700;28;20104;-79
2022/09/21 04:49:22;;;;;;;4.30;2.33;;;;;;;16.91;41.44;99607.50;5071675;28;20025;-79
2022/09/21 04:51:48;;;;;;;7.22;2.53;;;;;;;16.22;41.51;99517.72;5072755;28;20520;-79
2022/09/21 04:54:14;;;;;;;4.43;2.33;;;;;;;16.86;41.61;99606.53;5072813;28;20524;-79
2022/09/21 04:56:39;;;;;;;5.55;2.80;;;;;;;16.79;41.48;99601.25;5072736;28;20484;-79
2022/09/21 04:59:05;;;;;;;4.57;2.83;;;;;;;16.69;41.75;99580.41;5072866;28;20016;-79
2022/09/21 05:01:30;;;;;;;4.07;2.50;;;;;;;16.63;41.84;99567.91;5072443;28;20048;-79
2022/09/21 05:04:01;;;;;;;4.28;2.63;;;;;;;16.42;41.65;99530.94;5071218;28;20020;-78
2022/09/21 05:06:28;;;;;;;4.73;2.57;;;;;;;16.27;41.64;99531.22;5072669;28;20032;-79
2022/09/21 05:11:38;;;;;;;3.13;2.30;;;;;;;16.95;41.59;99648.72;5085294;28;20148;-78
2022/09/21 05:14:04;;;;;;;4.45;2.53;;;;;;;16.70;41.33;99571.34;5087337;28;20044;-79
2022/09/21 05:16:29;;;;;;;5.18;2.28;;;;;;;16.72;42.07;99595.13;5091871;28;20028;-78
2022/09/21 05:18:55;;;;;;;3.40;2.40;;;;;;;16.51;41.97;99546.47;5076491;28;20028;-79
2022/09/21 05:21:21;;;;;;;7.18;2.60;;;;;;;16.99;41.80;99609.91;5072908;28;20095;-78
2022/09/21 05:23:46;;;;;;;5.22;2.33;;;;;;;16.89;41.72;99577.56;5074256;28;20027;-79
2022/09/21 05:26:11;;;;;;;3.78;2.25;;;;;;;17.02;41.72;99616.66;5085988;28;20111;-79
2022/09/21 05:28:37;;;;;;;4.32;2.60;;;;;;;16.21;42.02;99508.09;5071882;28;20026;-79
2022/09/21 05:31:37;;;;;;;2.95;2.00;;;;;;;16.80;42.00;99594.88;5090413;28;20108;-79
2022/09/21 05:34:05;;;;;;;3.38;2.28;;;;;;;16.67;42.12;99569.13;5092003;28;20027;-79
2022/09/21 05:36:45;;;;;;;2.33;2.13;;;;;;;16.94;41.86;99590.25;5092004;28;20534;-79
2022/09/21 05:39:11;;;;;;;2.80;2.20;;;;;;;16.46;41.78;99506.31;5082339;28;20028;-78
2022/09/21 05:41:37;;;;;;;3.47;2.00;;;;;;;16.69;41.70;99551.06;5071628;28;20032;-79
2022/09/21 05:44:03;;;;;;;1.90;1.77;;;;;;;16.51;41.52;99519.00;5089327;28;20106;-79
2022/09/21 05:46:38;;;;;;;2.40;1.88;;;;;;;17.10;41.11;99597.72;5089333;28;20020;-79
2022/09/21 05:49:21;;;;;;;2.53;2.03;;;;;;;16.53;41.25;99504.41;5072956;28;20025;-78
2022/09/21 05:52:08;;;;;;;2.05;1.63;;;;;;;16.58;41.30;99506.41;5070053;28;20090;-78
2022/09/21 05:54:54;;;;;;;2.92;2.60;;;;;;;17.20;41.00;99599.91;5071398;28;20036;-79
2022/09/21 05:57:23;;;;;;;2.28;1.60;;;;;;;17.17;41.21;99606.50;5081395;28;20161;-79
2022/09/21 06:00:18;;;;;;;4.15;1.77;;;;;;;16.77;40.90;99541.97;5071995;28;20131;-79
2022/09/21 06:03:11;;;;;;;4.30;2.20;;;;;;;17.26;40.97;99604.34;5069035;28;20036;-79
2022/09/21 06:05:39;;;;;;;2.78;2.17;;;;;;;16.82;40.99;99515.47;5087006;28;20505;-78
2022/09/21 06:08:04;;;;;;;2.63;2.38;;;;;;;16.77;40.57;99518.78;5087155;28;20020;-79
2022/09/21 06:10:33;;;;;;;5.90;2.80;;;;;;;17.40;41.01;99606.66;5090421;28;20397;-79
2022/09/21 06:12:59;;;;;;;2.50;1.98;;;;;;;17.46;40.50;99599.63;5090181;28;20024;-78
2022/09/21 06:15:24;;;;;;;3.13;2.13;;;;;;;17.22;40.49;99561.28;5090213;28;20030;-79
2022/09/21 06:17:50;;;;;;;2.63;1.80;;;;;;;17.29;40.52;99551.34;5090192;28;20012;-79
2022/09/21 06:20:15;;;;;;;2.40;1.85;;;;;;;17.51;40.32;99569.59;5091623;28;20079;-79
2022/09/21 06:22:41;;;;;;;4.78;4.18;;;;;;;17.45;40.21;99529.41;5090167;28;20028;-79
2022/09/21 06:25:06;;;;;;;5.25;2.90;;;;;;;17.40;40.47;99531.13;5090128;28;20423;-79
2022/09/21 06:27:32;;;;;;;2.80;1.90;;;;;;;17.54;40.42;99572.66;5090676;28;20028;-79
2022/09/21 06:29:57;;;;;;;3.42;2.30;;;;;;;17.59;40.45;99545.28;5089692;28;20733;-79
2022/09/21 06:32:23;;;;;;;4.03;2.00;;;;;;;17.45;40.54;99537.44;5091180;28;20031;-78
2022/09/21 06:34:48;;;;;;;4.72;2.75;;;;;;;17.48;40.70;99528.16;5090903;28;20032;-79
2022/09/21 06:37:14;;;;;;;4.28;3.45;;;;;;;17.65;40.44;99569.22;5089762;28;20027;-79
2022/09/21 06:39:40;;;;;;;3.08;2.00;;;;;;;18.01;40.44;99631.75;5090964;28;20024;-79
2022/09/21 06:42:05;;;;;;;2.83;2.03;;;;;;;17.52;40.57;99549.88;5091195;28;20024;-79
2022/09/21 06:44:31;;;;;;;4.97;2.35;;;;;;;18.00;40.54;99638.13;5089858;28;20531;-79
2022/09/21 06:46:56;;;;;;;4.07;2.70;;;;;;;17.70;40.27;99597.97;5091132;28;20543;-79
2022/09/21 06:49:22;;;;;;;3.38;2.17;;;;;;;17.75;40.31;99588.25;5091190;28;20028;-79
2022/09/21 06:51:48;;;;;;;3.28;1.92;;;;;;;17.14;40.37;99485.03;5091513;28;20028;-78
2022/09/21 06:54:13;;;;;;;4.80;2.10;;;;;;;17.38;40.23;99510.00;5091328;28;20051;-78
2022/09/21 06:56:42;;;;;;;3.83;1.90;;;;;;;18.09;40.26;99621.56;5091111;28;20475;-79
2022/09/21 06:59:07;;;;;;;3.70;3.05;;;;;;;18.10;40.38;99630.41;5089935;28;20080;-79
2022/09/21 07:01:33;;;;;;;4.03;2.40;;;;;;;17.64;40.37;99564.13;5091000;28;20103;-79
2022/09/21 07:03:58;;;;;;;3.67;2.20;;;;;;;17.92;40.21;99601.84;5091340;28;20090;-79
2022/09/21 07:06:24;;;;;;;3.15;2.78;;;;;;;17.43;40.46;99533.34;5092267;28;20034;-79
2022/09/21 07:08:52;;;;;;;4.53;3.88;;;;;;;17.63;39.85;99547.28;5098156;28;20549;-78
2022/09/21 07:11:18;;;;;;;3.28;2.13;;;;;;;17.60;40.09;99538.91;5091677;28;20382;-77
2022/09/21 07:13:44;;;;;;;3.58;2.63;;;;;;;17.88;39.98;99579.28;5089791;28;20031;-79
2022/09/21 07:16:11;;;;;;;5.70;2.13;;;;;;;18.25;39.83;99633.50;5091089;28;20028;-78
2022/09/21 07:18:39;;;;;;;5.40;2.20;;;;;;;18.03;39.64;99611.78;5090943;28;20027;-78
2022/09/21 07:21:06;;;;;;;3.38;3.08;;;;;;;18.19;39.72;99641.59;5090874;28;20488;-78
2022/09/21 07:23:31;;;;;;;3.55;2.58;;;;;;;17.70;39.74;99566.75;5090745;28;20021;-78
2022/09/21 07:26:10;;;;;;;2.65;1.95;;;;;;;18.10;39.59;99619.69;5090783;28;20099;-79
2022/09/21 07:28:36;;;;;;;3.40;2.38;;;;;;;17.89;39.58;99572.09;5091098;28;20056;-79
2022/09/21 07:31:07;;;;;;;3.53;2.10;;;;;;;17.93;39.63;99575.94;5089868;28;20059;-79
2022/09/21 07:33:33;;;;;;;1.98;1.77;;;;;;;18.40;39.41;99623.19;5093076;28;20028;-80
2022/09/21 07:35:59;;;;;;;3.15;2.10;;;;;;;18.02;39.12;99591.44;5095286;28;20112;-79
2022/09/21 07:38:25;;;;;;;3.47;1.98;;;;;;;17.75;39.01;99521.47;5089433;28;20016;-78
2022/09/21 07:40:50;;;;;;;2.45;1.73;;;;;;;18.32;39.15;99631.53;5094156;28;20028;-78
2022/09/21 07:43:16;;;;;;;3.60;2.00;;;;;;;18.02;38.64;99580.75;5094515;28;20093;-79
2022/09/21 07:45:42;;;;;;;3.53;1.48;;;;;;;18.34;38.78;99615.28;5092851;28;20024;-79
2022/09/21 07:48:07;;;;;;;1.60;1.40;;;;;;;17.64;38.40;99492.03;5092921;28;20020;-79
2022/09/21 07:50:34;;;;;;;3.42;2.10;;;;;;;18.55;38.27;99621.97;5094294;28;20482;-79
2022/09/21 07:53:00;;;;;;;3.10;1.80;;;;;;;18.15;38.22;99561.06;5093774;28;20028;-79
2022/09/21 07:55:26;;;;;;;2.38;1.80;;;;;;;18.75;38.04;99611.03;5093119;28;20027;-78
2022/09/21 08:00:37;;;;;;;1.98;1.38;;;;;;;18.17;37.71;99513.53;5093896;28;20074;-79
2022/09/21 08:03:03;;;;;;;1.98;1.50;;;;;;;18.94;37.38;99642.00;5093646;28;20078;-78
2022/09/21 08:05:29;;;;;;;2.97;1.42;;;;;;;19.05;37.46;99644.72;5093713;28;20089;-78
2022/09/21 08:07:55;;;;;;;2.67;1.50;;;;;;;18.91;36.50;99588.97;5092436;28;20032;-79
2022/09/21 08:10:21;;;;;;;1.88;1.70;;;;;;;18.89;36.76;99580.34;5093781;28;20036;-79
2022/09/21 08:12:47;;;;;;;2.92;2.20;;;;;;;18.93;36.56;99570.81;5092090;28;20085;-79
2022/09/21 08:15:13;;;;;;;4.82;1.90;;;;;;;18.93;36.30;99571.63;5093370;28;20043;-79
2022/09/21 08:17:39;;;;;;;1.50;1.23;;;;;;;19.36;36.37;99605.31;5093409;28;20020;-79
2022/09/21 08:20:05;;;;;;;2.05;1.52;;;;;;;19.27;36.28;99553.13;5093390;28;20031;-79
2022/09/21 08:22:31;;;;;;;1.95;1.55;;;;;;;19.80;36.06;99617.25;5093562;28;20016;-78
2022/09/21 08:24:56;;;;;;;3.80;1.60;;;;;;;19.45;35.77;99573.63;5091921;28;20028;-78
2022/09/21 08:27:24;;;;;;;1.38;1.13;;;;;;;19.47;35.45;99596.44;5093397;28;20074;-79
2022/09/21 08:29:49;;;;;;;3.40;1.75;;;;;;;19.52;35.35;99601.09;5092001;28;20024;-79
2022/09/21 08:32:15;;;;;;;2.92;1.92;;;;;;;19.24;35.19;99558.94;5091836;28;20026;-79
2022/09/21 08:34:40;;;;;;;3.55;1.83;;;;;;;19.38;35.20;99572.94;5091705;28;20020;-79
2022/09/21 08:37:06;;;;;;;2.75;1.42;;;;;;;19.01;35.17;99493.69;5091532;28;20035;-78
2022/09/21 08:39:31;;;;;;;2.10;1.55;;;;;;;19.96;34.90;99631.78;5093255;28;20093;-79
2022/09/21 08:42:33;;;;;;;3.03;1.50;;;;;;;19.96;34.62;99616.53;5093178;28;20031;-79
2022/09/21 08:45:10;;;;;;;1.70;1.60;;;;;;;19.93;34.53;99622.38;5091570;28;20031;-79
2022/09/21 08:47:40;;;;;;;2.80;1.80;;;;;;;20.17;34.39;99622.31;5092945;28;20046;-79
2022/09/21 08:50:34;;;;;;;1.85;1.55;;;;;;;20.44;33.81;99609.19;5093007;28;20126;-79
2022/09/21 08:53:06;;;;;;;4.80;2.63;;;;;;;20.53;32.86;99600.50;5092221;28;20036;-79
2022/09/21 08:55:31;;;;;;;3.60;2.50;;;;;;;18.75;33.14;99277.53;5091737;28;20104;-78
2022/09/21 08:57:59;;;;;;;4.13;3.45;;;;;;;20.93;32.96;99581.63;5093020;28;20105;-80
2022/09/21 09:00:24;;;;;;;3.55;2.35;;;;;;;21.23;32.75;99601.97;5091143;28;20405;-79
2022/09/21 09:03:14;;;;;;;3.03;2.08;;;;;;;21.28;32.17;99607.41;5092650;28;20031;-77
2022/09/21 09:06:18;;;;;;;4.30;3.10;;;;;;;21.24;32.50;99568.66;5092470;28;20134;-78
2022/09/21 09:08:58;;;;;;;4.55;3.40;;;;;;;21.41;32.59;99598.19;5092304;28;20405;-78
2022/09/21 09:11:47;;;;;;;5.28;3.90;;;;;;;21.39;32.13;99566.19;5092236;28;20581;-79
2022/09/21 09:14:34;;;;;;;4.15;3.40;;;;;;;21.22;31.47;99517.06;5090999;28;20020;-79
2022/09/21 09:17:02;;;;;;;4.80;4.28;;;;;;;21.74;31.99;99583.88;5092522;28;20020;-79
2022/09/21 09:19:50;;;;;;;5.25;4.43;;;;;;;21.45;31.65;99519.53;5091277;28;20020;-78
2022/09/21 09:22:25;;;;;;;6.10;4.15;;;;;;;21.45;31.36;99505.28;5091003;28;20099;-79
2022/09/21 09:24:54;;;;;;;5.32;3.88;;;;;;;22.08;31.46;99569.25;5092479;28;20028;-79
2022/09/21 09:27:40;;;;;;;3.40;3.10;;;;;;;22.29;31.11;99572.97;5092657;28;20020;-79
2022/09/21 09:30:24;;;;;;;4.47;3.35;;;;;;;22.36;30.93;99564.72;5079093;28;20073;-78
2022/09/21 09:33:07;;;;;;;3.33;3.03;;;;;;;22.18;30.35;99547.84;5082432;28;20025;-77
2022/09/21 09:35:46;;;;;;;6.90;3.65;;;;;;;21.86;30.55;99518.16;5079062;28;20024;-78
2022/09/21 09:38:26;;;;;;;10.02;8.43;;;;;;;22.08;30.87;99561.19;5073953;28;20032;-76
2022/09/21 09:41:26;;;;;;;4.65;4.25;;;;;;;21.46;30.88;99496.97;5089929;28;20031;-78
2022/09/21 09:44:18;;;;;;;6.78;5.25;;;;;;;21.46;30.43;99504.22;5072454;28;20051;-78
2022/09/21 09:47:06;;;;;;;3.78;2.90;;;;;;;21.73;31.15;99555.38;5081791;28;20038;-78
2022/09/21 09:49:47;;;;;;;3.53;2.10;;;;;;;21.72;30.88;99553.75;5072037;28;20489;-78
2022/09/21 09:52:15;;;;;;;3.28;2.47;;;;;;;21.75;31.23;99553.25;5071097;28;20425;-78
2022/09/21 09:54:42;;;;;;;2.38;1.65;;;;;;;21.70;30.87;99553.19;5073405;28;20504;-78
2022/09/21 09:57:11;;;;;;;2.22;1.02;;;;;;;21.55;30.81;99554.63;5089356;28;20035;-79
2022/09/21 09:59:43;;;;;;;1.63;1.48;;;;;;;21.30;30.98;99534.66;5082499;28;20043;-79
2022/09/21 10:02:21;;;;;;;2.25;1.92;;;;;;;21.34;30.87;99520.47;5088399;28;20031;-77
2022/09/21 10:05:07;;;;;;;1.85;1.20;;;;;;;21.36;30.88;99523.72;5075805;28;20038;-79
2022/09/21 10:07:46;;;;;;;3.75;2.80;;;;;;;20.99;30.83;99461.72;5074107;28;20032;-78
2022/09/21 10:10:27;;;;;;;1.50;1.15;;;;;;;21.61;30.31;99549.31;5073158;28;20024;-79
2022/09/21 10:12:54;;;;;;;7.72;2.40;;;;;;;20.86;30.86;99444.09;5079954;28;20028;-78
2022/09/21 10:15:23;;;;;;;3.70;2.50;;;;;;;21.37;30.92;99519.16;5090624;28;20016;-78
2022/09/21 10:18:25;;;;;;;2.50;2.10;;;;;;;21.33;30.61;99489.31;5072077;28;20043;-78
2022/09/21 10:20:57;;;;;;;2.05;1.58;;;;;;;21.69;30.53;99541.63;5070534;28;20098;-78
2022/09/21 10:23:24;;;;;;;3.15;1.60;;;;;;;21.48;30.45;99529.78;5071380;28;20408;-78
2022/09/21 10:25:55;;;;;;;2.42;1.23;;;;;;;21.50;30.17;99549.16;5071038;28;20027;-78
2022/09/21 10:28:22;;;;;;;1.30;1.20;;;;;;;21.39;30.35;99536.66;5081370;28;20455;-78
2022/09/21 10:30:48;;;;;;;1.70;1.60;;;;;;;21.54;30.79;99528.78;5078980;28;20032;-78
2022/09/21 10:33:21;;;;;;;1.52;1.42;;;;;;;21.61;30.80;99543.94;5077118;28;20028;-78
2022/09/21 10:35:51;;;;;;;1.85;1.58;;;;;;;21.29;30.76;99479.31;5077205;28;20023;-78
2022/09/21 10:38:27;;;;;;;1.47;0.90;;;;;;;21.68;30.46;99529.25;5081335;28;20118;-80
2022/09/21 10:40:53;;;;;;;1.05;0.95;;;;;;;21.61;30.38;99509.00;5084206;28;20025;-80
2022/09/21 10:43:32;;;;;;;1.48;1.33;;;;;;;21.69;30.50;99528.19;5092037;28;20031;-79
2022/09/21 10:45:57;;;;;;;1.70;1.30;;;;;;;21.27;30.70;99457.25;5077703;28;20091;-79
2022/09/21 10:48:25;;;;;;;1.73;1.50;;;;;;;21.30;30.38;99452.19;5078295;28;20165;-78
2022/09/21 10:50:53;;;;;;;2.90;1.35;;;;;;;21.77;30.50;99524.25;5076690;28;20111;-78
2022/09/21 10:53:29;;;;;;;1.33;1.20;;;;;;;21.74;30.40;99525.56;5087783;28;20062;-78
2022/09/21 10:56:02;;;;;;;2.72;1.40;;;;;;;21.71;30.49;99533.31;5074956;28;20020;-78
2022/09/21 10:58:28;;;;;;;2.20;1.33;;;;;;;21.24;30.31;99443.28;5088099;28;20512;-78
2022/09/21 11:00:55;;;;;;;2.28;1.40;;;;;;;21.76;30.12;99515.38;5089021;28;20052;-78
2022/09/21 11:03:49;;;;;;;1.85;1.20;;;;;;;21.39;30.26;99415.78;5078420;28;20450;-78
2022/09/21 11:06:36;;;;;;;3.05;1.80;;;;;;;22.02;30.10;99497.63;5093248;28;20044;-79
2022/09/21 11:09:02;;;;;;;2.40;1.40;;;;;;;22.24;29.70;99497.59;5081995;28;20021;-79
2022/09/21 11:11:41;;;;;;;2.03;1.83;;;;;;;22.35;29.41;99493.97;5071611;28;20086;-78
2022/09/21 11:14:24;;;;;;;1.73;1.63;;;;;;;22.37;29.31;99493.72;5072454;28;20082;-79
2022/09/21 11:17:19;;;;;;;1.98;1.00;;;;;;;22.08;28.83;99450.94;5074686;28;20024;-79
2022/09/21 11:19:50;;;;;;;2.20;1.55;;;;;;;22.31;29.15;99492.03;5084313;28;20021;-79
2022/09/21 11:22:54;;;;;;;1.80;1.07;;;;;;;22.37;28.82;99491.81;5074617;28;20020;-79
2022/09/21 11:25:47;;;;;;;2.45;1.25;;;;;;;22.43;28.72;99480.03;5074115;28;20496;-79
2022/09/21 11:28:21;;;;;;;3.22;1.00;;;;;;;22.04;28.51;99432.88;5085229;28;20111;-80
2022/09/21 11:31:22;;;;;;;1.30;1.20;;;;;;;22.31;27.72;99486.66;5076540;28;20025;-79
2022/09/21 11:34:04;;;;;;;1.65;0.70;;;;;;;22.18;27.97;99472.53;5089182;28;20027;-78
2022/09/21 11:36:42;;;;;;;0.80;0.80;;;;;;;22.42;27.70;99469.53;5086295;28;20552;-78
2022/09/21 11:39:38;;;;;;;1.35;1.08;;;;;;;22.49;27.56;99475.50;5073953;28;20517;-79
2022/09/21 11:42:43;;;;;;;2.15;1.00;;;;;;;22.59;27.35;99478.28;5084058;28;20644;-79
2022/09/21 11:45:46;;;;;;;2.38;1.85;;;;;;;22.68;27.89;99473.22;5074533;28;20044;-79
2022/09/21 11:48:40;;;;;;;1.17;1.08;;;;;;;22.53;27.42;99428.19;5073173;28;20027;-79
2022/09/21 11:51:27;;;;;;;1.52;1.17;;;;;;;22.87;26.53;99466.38;5084612;28;20023;-79
2022/09/21 11:54:12;;;;;;;3.13;0.93;;;;;;;22.56;26.20;99399.94;5092458;28;20412;-78
2022/09/21 11:56:42;;;;;;;1.83;1.42;;;;;;;22.98;26.72;99454.59;5090790;28;20070;-79
2022/09/21 11:59:20;;;;;;;1.42;0.80;;;;;;;22.94;25.91;99456.19;5094167;28;20024;-79
2022/09/21 12:02:00;;;;;;;1.40;0.90;;;;;;;23.03;26.42;99454.63;5078749;28;20035;-79